Terminal Aerodrome Forecast
Issued by NWS Cleveland, OH

Home | Current Version | Previous Version | Text Only | Print | Product List | Glossary On
Versions: 1 2 3 4 5 6 7 8 9 10 11 12 13 14 15 16 17
000
FTUS41 KCLE 070539
TAFERI
TAF
KERI 070539Z 0706/0806 18010KT P6SM BKN250
     FM071400 20010G20KT P6SM SCT040 BKN250
     FM071900 22010G20KT P6SM VCSH BKN040 OVC200
     FM072200 24010G20KT P6SM -SHRA VCTS OVC040CB
     FM080100 30010KT 3SM -SHRA BR OVC015
     FM080300 35005KT 3SM -SHRA BR OVC007=

USA.gov is the U.S. government's official web portal to all federal, state and local government web resources and services.